Naniwa Maru No48 — JD3365 — position and weather

sailwx.info

Track history (hours):
 
Tides and Currents Weather Stations Pressure Air Temp Water Temp Dewpoint Dewpoint Depression Visibility Wind Speed Wind Dir Waves Ship Positions

Naniwa Maru No48

Last reported at 2017-Oct-17 15:53 UTC. Time now 2017-Oct-17 22:28 UTC.
Position N 34°11' E 134°58'.

Length 104 m; draft 5.7 m.

Type: Tanker. MMSI: 431003537.

Date/timePositionNaut miles runAvg speedWind from/ knotsBaromVisibWave heightAir tempDewpointWater temp
2017-Oct-17 15:53N 34°11' E 134°58'1115.4
2017-Oct-17 15:11N 34°21' E 135°03'316.2
2017-Oct-17 15:00N 34°23' E 135°05'815.7
2017-Oct-17 14:30N 34°29' E 135°12'715.1
2017-Oct-17 14:01N 34°34' E 135°19'611.1
2017-Oct-17 13:30N 34°35' E 135°25'1 0.1
2017-Oct-17 04:28N 34°35' E 135°25'2 3.9
2017-Oct-17 04:00N 34°36' E 135°24'2 0.8
2017-Oct-17 01:36N 34°36' E 135°22'0 0.0
2017-Oct-17 01:12N 34°36' E 135°22'0 0.0
2017-Oct-17 01:00N 34°36' E 135°22'0 0.0
2017-Oct-17 00:24N 34°36' E 135°22'0 0.0
2017-Oct-17 00:00N 34°36' E 135°22'0 0.0
2017-Oct-16 22:48N 34°36' E 135°22'0 0.0
2017-Oct-16 22:30N 34°36' E 135°22'3 6.8
2017-Oct-16 22:00N 34°33' E 135°19'713.7
2017-Oct-16 21:30N 34°29' E 135°13'713.6
2017-Oct-16 21:00N 34°24' E 135°07'814.3
2017-Oct-16 20:25N 34°18' E 135°00'613.6
2017-Oct-16 20:00N 34°12' E 134°60'713.8
2017-Oct-16 19:30N 34°05' E 135°00'  
2017-Oct-13 07:58N 34°37' E 134°58'714.4
2017-Oct-13 07:30N 34°35' E 135°05'814.9
2017-Oct-13 07:00N 34°27' E 135°03'1115.1
2017-Oct-13 06:15N 34°16' E 134°59'415.3
2017-Oct-13 06:00N 34°13' E 134°60'714.8
2017-Oct-13 05:30N 34°05' E 135°01'22911.6
2017-Oct-12 09:51N 34°58' E 139°31'412.8
2017-Oct-12 09:30N 35°01' E 139°34'713.5
2017-Oct-12 09:01N 35°06' E 139°40'713.7
2017-Oct-12 08:30N 35°11' E 139°45'612.1
2017-Oct-12 08:00N 35°17' E 139°45'612.8
2017-Oct-12 07:30N 35°24' E 139°43'713.8
2017-Oct-12 07:01N 35°28' E 139°49'2 0.1
2017-Oct-11 17:37N 35°26' E 139°49'214.6
2017-Oct-11 17:30N 35°25' E 139°48'713.4
2017-Oct-11 16:59N 35°19' E 139°44'38 1.3
2017-Oct-10 11:17N 34°49' E 139°15'1613.3
2017-Oct-10 10:06N 34°59' E 139°30'213.5
2017-Oct-10 09:58N 35°00' E 139°31'613.5
2017-Oct-10 09:30N 35°04' E 139°38'713.9
2017-Oct-10 09:00N 35°09' E 139°44'612.9
2017-Oct-10 08:30N 35°15' E 139°46'712.3
2017-Oct-10 07:58N 35°21' E 139°42'612.2
2017-Oct-10 07:29N 35°26' E 139°46'613.5
2017-Oct-10 07:00N 35°30' E 139°52'9 1.3
2017-Oct-09 23:39N 35°32' E 140°03'7 0.2
2017-Oct-08 12:54N 35°31' E 139°55'513.8
2017-Oct-08 12:30N 35°27' E 139°50'612.3
2017-Oct-08 12:00N 35°22' E 139°45'510.9
2017-Oct-08 11:30N 35°17' E 139°46'611.8
2017-Oct-08 11:01N 35°11' E 139°47'815.1
2017-Oct-08 10:30N 35°04' E 139°45'714.0
2017-Oct-08 10:01N 34°59' E 139°39'714.8
2017-Oct-08 09:30N 34°55' E 139°31'  
Track history (hours):
 
Tides and Currents Weather Stations Pressure Air Temp Water Temp Dewpoint Dewpoint Depression Visibility Wind Speed Wind Dir Waves Ship Positions

Naniwa Maru No48

Last reported at 2017-Oct-17 15:53 UTC. Time now 2017-Oct-17 22:28 UTC.
Position N 34°11' E 134°58'.

Length 104 m; draft 5.7 m.

Type: Tanker. MMSI: 431003537.

Date/timePositionNaut miles runAvg speedWind from/ knotsBaromVisibWave heightAir tempDewpointWater temp
2017-Oct-17 15:53N 34°11' E 134°58'1115.4
2017-Oct-17 15:11N 34°21' E 135°03'316.2
2017-Oct-17 15:00N 34°23' E 135°05'815.7
2017-Oct-17 14:30N 34°29' E 135°12'715.1
2017-Oct-17 14:01N 34°34' E 135°19'611.1
2017-Oct-17 13:30N 34°35' E 135°25'1 0.1
2017-Oct-17 04:28N 34°35' E 135°25'2 3.9
2017-Oct-17 04:00N 34°36' E 135°24'2 0.8
2017-Oct-17 01:36N 34°36' E 135°22'0 0.0
2017-Oct-17 01:12N 34°36' E 135°22'0 0.0
2017-Oct-17 01:00N 34°36' E 135°22'0 0.0
2017-Oct-17 00:24N 34°36' E 135°22'0 0.0
2017-Oct-17 00:00N 34°36' E 135°22'0 0.0
2017-Oct-16 22:48N 34°36' E 135°22'0 0.0
2017-Oct-16 22:30N 34°36' E 135°22'3 6.8
2017-Oct-16 22:00N 34°33' E 135°19'713.7
2017-Oct-16 21:30N 34°29' E 135°13'713.6
2017-Oct-16 21:00N 34°24' E 135°07'814.3
2017-Oct-16 20:25N 34°18' E 135°00'613.6
2017-Oct-16 20:00N 34°12' E 134°60'713.8
2017-Oct-16 19:30N 34°05' E 135°00'  
2017-Oct-13 07:58N 34°37' E 134°58'714.4
2017-Oct-13 07:30N 34°35' E 135°05'814.9
2017-Oct-13 07:00N 34°27' E 135°03'1115.1
2017-Oct-13 06:15N 34°16' E 134°59'415.3
2017-Oct-13 06:00N 34°13' E 134°60'714.8
2017-Oct-13 05:30N 34°05' E 135°01'22911.6
2017-Oct-12 09:51N 34°58' E 139°31'412.8
2017-Oct-12 09:30N 35°01' E 139°34'713.5
2017-Oct-12 09:01N 35°06' E 139°40'713.7
2017-Oct-12 08:30N 35°11' E 139°45'612.1
2017-Oct-12 08:00N 35°17' E 139°45'612.8
2017-Oct-12 07:30N 35°24' E 139°43'713.8
2017-Oct-12 07:01N 35°28' E 139°49'2 0.1
2017-Oct-11 17:37N 35°26' E 139°49'214.6
2017-Oct-11 17:30N 35°25' E 139°48'713.4
2017-Oct-11 16:59N 35°19' E 139°44'38 1.3
2017-Oct-10 11:17N 34°49' E 139°15'1613.3
2017-Oct-10 10:06N 34°59' E 139°30'213.5
2017-Oct-10 09:58N 35°00' E 139°31'613.5
2017-Oct-10 09:30N 35°04' E 139°38'713.9
2017-Oct-10 09:00N 35°09' E 139°44'612.9
2017-Oct-10 08:30N 35°15' E 139°46'712.3
2017-Oct-10 07:58N 35°21' E 139°42'612.2
2017-Oct-10 07:29N 35°26' E 139°46'613.5
2017-Oct-10 07:00N 35°30' E 139°52'9 1.3
2017-Oct-09 23:39N 35°32' E 140°03'7 0.2
2017-Oct-08 12:54N 35°31' E 139°55'513.8
2017-Oct-08 12:30N 35°27' E 139°50'612.3
2017-Oct-08 12:00N 35°22' E 139°45'510.9
2017-Oct-08 11:30N 35°17' E 139°46'611.8
2017-Oct-08 11:01N 35°11' E 139°47'815.1
2017-Oct-08 10:30N 35°04' E 139°45'714.0
2017-Oct-08 10:01N 34°59' E 139°39'714.8
2017-Oct-08 09:30N 34°55' E 139°31'  

Dump ship's entire track history